createdAt,value
2022-11-21T00:00:46.089Z,5.70
2022-11-21T00:03:15.097Z,5.90
2022-11-21T00:05:45.006Z,6.00
2022-11-21T00:08:15.579Z,6.10
2022-11-21T00:10:47.786Z,6.40
2022-11-21T00:16:04.859Z,6.40
2022-11-21T00:18:34.989Z,6.70
2022-11-21T00:21:07.686Z,6.90
2022-11-21T00:23:37.312Z,7.10
2022-11-21T00:26:07.673Z,6.90
2022-11-21T00:28:37.560Z,6.80
2022-11-21T00:31:08.444Z,7.00
2022-11-21T00:33:39.388Z,6.90
2022-11-21T00:36:08.962Z,6.70
2022-11-21T00:38:37.933Z,6.70
2022-11-21T00:41:08.066Z,6.60
2022-11-21T00:43:36.177Z,6.60
2022-11-21T00:46:04.773Z,6.80
2022-11-21T00:48:34.096Z,6.70
2022-11-21T00:51:02.925Z,6.90
2022-11-21T00:53:32.066Z,7.20
2022-11-21T00:56:00.660Z,7.10
2022-11-21T00:58:30.013Z,7.10
2022-11-21T01:01:06.908Z,7.30
2022-11-21T01:03:35.606Z,7.20
2022-11-21T01:06:05.980Z,7.30
2022-11-21T01:08:36.171Z,7.30
2022-11-21T01:11:05.368Z,7.50
2022-11-21T01:13:35.953Z,7.40
2022-11-21T01:16:05.763Z,7.60
2022-11-21T01:18:34.870Z,7.60
2022-11-21T01:21:03.062Z,7.70
2022-11-21T01:23:32.429Z,7.70
2022-11-21T01:26:03.484Z,7.90
2022-11-21T01:28:34.559Z,8.10
2022-11-21T01:31:17.360Z,8.10
2022-11-21T01:33:48.489Z,8.10
2022-11-21T01:36:18.390Z,8.00
2022-11-21T01:38:48.821Z,7.90
2022-11-21T01:41:18.908Z,8.00
2022-11-21T01:43:50.995Z,7.90
2022-11-21T01:46:23.010Z,7.90
2022-11-21T01:49:02.135Z,8.10
2022-11-21T01:51:34.366Z,8.00
2022-11-21T01:54:13.209Z,8.00
2022-11-21T01:56:46.233Z,8.00
2022-11-21T01:59:21.035Z,8.10
2022-11-21T02:01:51.925Z,8.20
2022-11-21T02:04:21.433Z,8.20
2022-11-21T02:06:49.823Z,8.20
2022-11-21T02:09:19.694Z,8.10
2022-11-21T02:11:50.830Z,8.20
2022-11-21T02:14:24.604Z,8.10
2022-11-21T02:16:53.146Z,7.90
2022-11-21T02:19:29.208Z,8.00
2022-11-21T02:22:02.214Z,8.00
2022-11-21T02:24:38.945Z,8.00
2022-11-21T02:27:08.880Z,8.40
2022-11-21T02:29:36.954Z,8.20
2022-11-21T02:32:06.923Z,8.20
2022-11-21T02:34:35.148Z,8.30
2022-11-21T02:37:04.315Z,8.40
2022-11-21T02:39:36.226Z,8.20
2022-11-21T02:42:14.034Z,7.90
2022-11-21T02:44:52.569Z,8.00
2022-11-21T02:47:22.636Z,8.00
2022-11-21T02:49:58.064Z,8.00
2022-11-21T02:52:26.543Z,8.00
2022-11-21T02:54:55.075Z,7.90
2022-11-21T02:57:27.049Z,7.90
2022-11-21T02:59:55.077Z,8.00
2022-11-21T03:02:27.016Z,7.90
2022-11-21T03:04:58.014Z,7.70
2022-11-21T03:07:26.641Z,7.80
2022-11-21T03:09:54.694Z,8.00
2022-11-21T03:12:26.758Z,8.10
2022-11-21T03:14:54.780Z,8.00
2022-11-21T03:17:23.770Z,8.00
2022-11-21T03:19:54.609Z,8.10
2022-11-21T03:22:30.831Z,8.00
2022-11-21T03:27:45.571Z,8.20
2022-11-21T03:30:14.437Z,8.10
2022-11-21T03:32:44.245Z,7.80
2022-11-21T03:35:12.302Z,7.60
2022-11-21T03:37:41.243Z,7.70
2022-11-21T03:40:10.432Z,7.70
2022-11-21T03:42:38.607Z,7.70
2022-11-21T03:45:12.518Z,7.80
2022-11-21T03:47:40.543Z,7.80
2022-11-21T03:50:11.109Z,8.00
2022-11-21T03:52:39.114Z,8.10
2022-11-21T03:55:08.273Z,8.00
2022-11-21T03:57:37.392Z,8.00
2022-11-21T04:00:06.051Z,7.80
2022-11-21T04:02:37.936Z,8.00
2022-11-21T04:05:07.333Z,8.00
2022-11-21T04:07:37.669Z,8.00
2022-11-21T04:10:07.349Z,8.10
2022-11-21T04:12:35.341Z,8.10
2022-11-21T04:15:12.137Z,8.10
2022-11-21T04:17:43.847Z,8.20
2022-11-21T04:20:12.637Z,8.10
2022-11-21T04:22:41.320Z,8.20
2022-11-21T04:25:10.287Z,8.40
2022-11-21T04:27:38.498Z,8.40
2022-11-21T04:30:07.541Z,8.50
2022-11-21T04:32:35.974Z,8.50
2022-11-21T04:35:05.973Z,8.20
2022-11-21T04:37:36.744Z,8.40
2022-11-21T04:40:07.202Z,8.40
2022-11-21T04:43:00.367Z,8.50
2022-11-21T04:45:29.442Z,8.50
2022-11-21T04:48:00.134Z,8.60
2022-11-21T04:50:33.416Z,8.40
2022-11-21T04:53:01.777Z,8.40
2022-11-21T04:55:33.225Z,8.40
2022-11-21T04:58:02.131Z,8.40
2022-11-21T05:00:30.427Z,8.50
2022-11-21T05:03:04.182Z,8.40
2022-11-21T05:05:34.332Z,8.50
2022-11-21T05:08:02.869Z,8.40
2022-11-21T05:10:31.336Z,8.30
2022-11-21T05:13:19.652Z,8.20
2022-11-21T05:15:51.846Z,8.20
2022-11-21T05:18:20.656Z,8.20
2022-11-21T05:20:50.181Z,8.30
2022-11-21T05:23:21.258Z,8.40
2022-11-21T05:25:49.349Z,8.40
2022-11-21T05:28:17.420Z,8.50
2022-11-21T05:30:46.036Z,8.50
2022-11-21T05:33:14.042Z,8.60
2022-11-21T05:35:43.793Z,8.50
2022-11-21T05:38:13.356Z,8.30
2022-11-21T05:40:41.758Z,8.30
2022-11-21T05:43:32.393Z,8.30
2022-11-21T05:46:00.400Z,8.60
2022-11-21T05:48:30.510Z,8.60
2022-11-21T05:50:59.353Z,8.40
2022-11-21T05:53:29.113Z,8.40
2022-11-21T05:55:57.634Z,8.40
2022-11-21T05:58:26.104Z,8.30
2022-11-21T06:01:00.091Z,8.30
2022-11-21T06:03:31.203Z,8.50
2022-11-21T06:06:12.304Z,8.50
2022-11-21T06:08:44.370Z,8.50
2022-11-21T06:11:14.693Z,8.50
2022-11-21T06:13:43.451Z,8.50
2022-11-21T06:16:13.812Z,8.50
2022-11-21T06:18:45.600Z,8.70
2022-11-21T06:21:16.416Z,8.50
2022-11-21T06:23:46.753Z,8.50
2022-11-21T06:26:16.972Z,8.20
2022-11-21T06:28:45.977Z,8.10
2022-11-21T06:31:17.710Z,8.10
2022-11-21T06:33:50.002Z,8.40
2022-11-21T06:36:18.653Z,8.20
2022-11-21T06:38:50.535Z,8.10
2022-11-21T06:41:22.992Z,7.90
2022-11-21T06:43:51.582Z,8.20
2022-11-21T06:46:19.975Z,8.00
2022-11-21T06:48:48.380Z,8.10
2022-11-21T06:51:19.277Z,8.20
2022-11-21T06:53:55.587Z,8.10
2022-11-21T06:56:24.769Z,8.20
2022-11-21T06:58:52.789Z,8.40
2022-11-21T07:01:23.579Z,8.20
2022-11-21T07:03:56.646Z,8.30
2022-11-21T07:06:24.925Z,8.40
2022-11-21T07:09:25.213Z,8.50
2022-11-21T07:11:44.718Z,8.50
2022-11-21T07:14:12.467Z,8.30
2022-11-21T07:16:40.728Z,8.30
2022-11-21T07:19:08.721Z,8.30
2022-11-21T07:21:37.170Z,7.90
2022-11-21T07:24:07.530Z,7.80
2022-11-21T07:26:35.975Z,7.60
2022-11-21T07:29:04.947Z,7.70
2022-11-21T07:31:33.173Z,7.80
2022-11-21T07:34:01.145Z,8.10
2022-11-21T07:36:32.420Z,8.00
2022-11-21T07:39:00.939Z,8.00
2022-11-21T07:41:30.308Z,8.20
2022-11-21T07:43:58.495Z,8.20
2022-11-21T07:46:26.881Z,8.20
2022-11-21T07:48:58.316Z,8.10
2022-11-21T07:51:32.190Z,8.20
2022-11-21T07:54:01.204Z,8.30
2022-11-21T07:56:30.647Z,8.40
2022-11-21T07:58:59.003Z,8.60
2022-11-21T08:01:27.550Z,8.60
2022-11-21T08:03:56.073Z,8.60
2022-11-21T08:06:24.037Z,8.70
2022-11-21T08:08:54.498Z,8.80
2022-11-21T08:11:22.680Z,8.80
2022-11-21T08:13:54.309Z,8.80
2022-11-21T08:16:28.009Z,8.70
2022-11-21T08:18:59.031Z,8.90
2022-11-21T08:21:28.194Z,8.90
2022-11-21T08:23:56.232Z,9.00
2022-11-21T08:26:26.879Z,9.00
2022-11-21T08:29:00.021Z,9.00
2022-11-21T08:31:28.919Z,8.90
2022-11-21T08:34:03.354Z,9.00
2022-11-21T08:36:32.279Z,9.00
2022-11-21T08:39:00.458Z,9.00
2022-11-21T08:41:46.294Z,9.00
2022-11-21T08:44:19.121Z,9.00
2022-11-21T08:46:47.620Z,9.10
2022-11-21T08:49:15.739Z,9.20
2022-11-21T08:51:43.849Z,9.20
2022-11-21T08:54:12.254Z,9.20
2022-11-21T08:56:42.397Z,9.30
2022-11-21T08:59:12.950Z,9.20
2022-11-21T09:01:42.951Z,9.20
2022-11-21T09:04:13.676Z,9.00
2022-11-21T09:06:41.862Z,9.20
2022-11-21T09:09:12.034Z,9.20
2022-11-21T09:11:40.231Z,9.20
2022-11-21T09:14:26.513Z,9.30
2022-11-21T09:17:13.613Z,9.30
2022-11-21T09:19:42.224Z,9.10
2022-11-21T09:24:54.861Z,9.10
2022-11-21T09:27:25.441Z,8.90
2022-11-21T09:30:01.457Z,8.80
2022-11-21T09:32:31.917Z,8.90
2022-11-21T09:35:00.756Z,9.00
2022-11-21T09:37:31.380Z,9.10
2022-11-21T09:40:00.001Z,9.10
2022-11-21T09:42:45.304Z,9.10
2022-11-21T09:45:17.756Z,9.40
2022-11-21T09:47:50.652Z,9.40
2022-11-21T09:50:30.189Z,9.40
2022-11-21T09:53:07.159Z,9.40
2022-11-21T09:55:43.578Z,9.40
2022-11-21T09:58:20.296Z,9.50
2022-11-21T10:00:55.940Z,9.50
2022-11-21T10:03:30.545Z,9.40
2022-11-21T10:06:02.870Z,9.40
2022-11-21T10:08:42.614Z,9.50
2022-11-21T10:11:22.792Z,9.60
2022-11-21T10:14:08.112Z,9.50
2022-11-21T10:16:45.152Z,9.70
2022-11-21T10:19:44.624Z,9.70
2022-11-21T10:22:31.856Z,9.70
2022-11-21T10:25:07.448Z,9.70
2022-11-21T10:27:42.956Z,9.70
2022-11-21T10:30:16.894Z,9.60
2022-11-21T10:32:51.590Z,9.70
2022-11-21T10:35:24.412Z,9.70
2022-11-21T10:37:57.390Z,9.70
2022-11-21T10:40:35.202Z,9.50
2022-11-21T10:43:28.456Z,9.60
2022-11-21T10:45:56.879Z,9.70
2022-11-21T10:48:24.964Z,9.70
2022-11-21T10:51:11.262Z,9.70
2022-11-21T10:54:04.656Z,9.90
2022-11-21T10:56:37.943Z,9.80
2022-11-21T10:59:22.585Z,9.90
2022-11-21T11:02:00.206Z,10.00
2022-11-21T11:04:43.954Z,10.10
2022-11-21T11:07:29.843Z,10.00
2022-11-21T11:10:16.729Z,10.00
2022-11-21T11:13:05.168Z,10.10
2022-11-21T11:15:54.780Z,10.10
2022-11-21T11:18:25.189Z,10.20
2022-11-21T11:20:54.134Z,10.20
2022-11-21T11:23:32.391Z,10.30
2022-11-21T11:26:01.287Z,10.30
2022-11-21T11:28:36.972Z,10.30
2022-11-21T11:31:05.051Z,10.50
2022-11-21T11:33:36.583Z,10.50
2022-11-21T11:36:32.115Z,10.80
2022-11-21T11:39:18.030Z,10.80
2022-11-21T11:42:29.888Z,11.10
2022-11-21T11:45:36.517Z,11.40
2022-11-21T11:48:10.044Z,11.40
2022-11-21T11:50:46.305Z,11.50
2022-11-21T11:53:19.305Z,11.40
2022-11-21T11:55:54.689Z,11.40
2022-11-21T11:58:31.673Z,11.20
2022-11-21T12:01:04.925Z,11.30
2022-11-21T12:03:57.841Z,11.30
2022-11-21T12:07:10.644Z,11.40
2022-11-21T12:09:28.475Z,10.80
2022-11-21T12:12:16.592Z,10.70
2022-11-21T12:15:13.867Z,10.50
2022-11-21T12:17:48.341Z,10.70
2022-11-21T12:20:24.665Z,10.50
2022-11-21T12:22:55.120Z,10.30
2022-11-21T12:25:30.390Z,10.40
2022-11-21T12:28:02.701Z,10.50
2022-11-21T12:30:55.082Z,11.10
2022-11-21T12:33:24.456Z,12.00
2022-11-21T12:36:21.114Z,13.00
2022-11-21T12:39:17.256Z,14.00
2022-11-21T12:42:11.821Z,14.50
2022-11-21T12:45:03.169Z,14.90
2022-11-21T12:48:16.788Z,14.90
2022-11-21T12:51:11.854Z,14.20
2022-11-21T12:54:04.315Z,13.20
2022-11-21T12:56:43.078Z,12.60
2022-11-21T12:59:14.895Z,12.20
2022-11-21T13:01:55.531Z,11.90
2022-11-21T13:04:26.080Z,11.80
2022-11-21T13:06:57.147Z,11.50
2022-11-21T13:09:28.422Z,11.20
2022-11-21T13:12:05.656Z,11.00
2022-11-21T13:14:48.385Z,10.50
2022-11-21T13:17:28.084Z,10.60
2022-11-21T13:20:04.092Z,10.70
2022-11-21T13:22:55.527Z,11.00
2022-11-21T13:25:47.876Z,11.10
2022-11-21T13:28:42.270Z,11.20
2022-11-21T13:31:35.645Z,11.30
2022-11-21T13:34:05.636Z,11.60
2022-11-21T13:36:46.428Z,11.80
2022-11-21T13:39:30.103Z,11.50
2022-11-21T13:42:33.238Z,11.70
2022-11-21T13:45:38.494Z,11.40
2022-11-21T13:48:51.976Z,11.70
2022-11-21T13:51:52.095Z,11.80
2022-11-21T13:55:05.305Z,11.80
2022-11-21T13:57:49.788Z,12.00
2022-11-21T14:00:58.354Z,12.10
2022-11-21T14:03:53.549Z,12.10
2022-11-21T14:06:34.970Z,12.30
2022-11-21T14:09:26.041Z,12.30
2022-11-21T14:11:57.907Z,12.20
2022-11-21T14:14:39.628Z,12.00
2022-11-21T14:17:44.878Z,12.10
2022-11-21T14:20:20.216Z,12.10
2022-11-21T14:22:56.871Z,12.20
2022-11-21T14:25:34.040Z,12.10
2022-11-21T14:28:05.214Z,12.00
2022-11-21T14:30:37.043Z,11.90
2022-11-21T14:33:28.106Z,12.00
2022-11-21T14:36:08.826Z,11.90
2022-11-21T14:38:44.528Z,11.90
2022-11-21T14:41:38.948Z,12.00
2022-11-21T14:44:19.244Z,11.90
2022-11-21T14:46:48.968Z,11.90
2022-11-21T14:49:31.733Z,11.80
2022-11-21T14:52:07.185Z,11.70
2022-11-21T14:55:13.452Z,11.70
2022-11-21T14:57:42.278Z,11.70
2022-11-21T15:00:43.115Z,11.60
2022-11-21T15:03:06.914Z,11.50
2022-11-21T15:11:19.086Z,11.40
2022-11-21T15:16:43.321Z,11.40
2022-11-21T15:19:12.471Z,11.30
2022-11-21T15:21:46.757Z,11.30
2022-11-21T15:24:19.534Z,11.30
2022-11-21T15:26:51.186Z,11.20
2022-11-21T15:29:29.742Z,11.20
2022-11-21T15:32:09.160Z,11.20
2022-11-21T15:34:41.545Z,11.20
2022-11-21T15:37:28.135Z,11.10
2022-11-21T15:39:56.333Z,11.10
2022-11-21T15:42:47.179Z,11.10
2022-11-21T15:45:28.405Z,11.00
2022-11-21T15:47:57.005Z,11.00
2022-11-21T15:50:26.148Z,11.20
2022-11-21T15:52:54.984Z,11.10
2022-11-21T15:55:26.618Z,11.00
2022-11-21T15:57:56.016Z,10.90
2022-11-21T16:00:27.241Z,10.90
2022-11-21T16:02:56.166Z,10.90
2022-11-21T16:05:24.774Z,10.70
2022-11-21T16:07:53.109Z,10.70
2022-11-21T16:10:27.564Z,10.70
2022-11-21T16:12:57.748Z,10.40
2022-11-21T16:15:25.861Z,10.30
2022-11-21T16:17:54.556Z,10.20
2022-11-21T16:20:22.952Z,9.90
2022-11-21T16:22:51.030Z,9.80
2022-11-21T16:25:19.704Z,9.90
2022-11-21T16:27:47.727Z,10.10
2022-11-21T16:30:17.391Z,10.10
2022-11-21T16:32:47.112Z,10.10
2022-11-21T16:35:15.636Z,10.20
2022-11-21T16:37:44.618Z,10.30
2022-11-21T16:40:13.025Z,10.20
2022-11-21T16:42:41.829Z,10.20
2022-11-21T16:45:17.463Z,10.40
2022-11-21T16:47:48.947Z,10.50
2022-11-21T16:50:18.694Z,10.50
2022-11-21T16:52:47.830Z,10.70
2022-11-21T16:55:15.939Z,10.80
2022-11-21T16:57:44.380Z,10.80
2022-11-21T17:00:13.936Z,10.60
2022-11-21T17:02:43.321Z,10.70
2022-11-21T17:05:14.402Z,10.60
2022-11-21T17:07:43.905Z,10.70
2022-11-21T17:10:12.787Z,10.50
2022-11-21T17:12:44.197Z,10.40
2022-11-21T17:15:14.157Z,10.40
2022-11-21T17:17:45.109Z,10.50
2022-11-21T17:20:13.577Z,10.50
2022-11-21T17:22:41.543Z,10.50
2022-11-21T17:25:10.674Z,10.50
2022-11-21T17:27:38.652Z,10.50
2022-11-21T17:30:08.396Z,10.60
2022-11-21T17:32:36.897Z,10.60
2022-11-21T17:35:07.976Z,10.60
2022-11-21T17:37:36.464Z,10.80
2022-11-21T17:40:06.569Z,10.70
2022-11-21T17:42:35.619Z,10.50
2022-11-21T17:45:03.645Z,10.50
2022-11-21T17:47:33.992Z,10.60
2022-11-21T17:50:10.655Z,10.60
2022-11-21T17:52:38.732Z,10.20
2022-11-21T17:55:07.274Z,10.20
2022-11-21T17:57:35.860Z,10.30
2022-11-21T18:00:05.209Z,10.50
2022-11-21T18:02:38.581Z,10.60
2022-11-21T18:05:08.258Z,10.50
2022-11-21T18:07:37.830Z,10.60
2022-11-21T18:10:35.255Z,10.70
2022-11-21T18:12:56.605Z,10.80
2022-11-21T18:15:24.581Z,10.80
2022-11-21T18:17:59.551Z,10.90
2022-11-21T18:20:39.024Z,10.80
2022-11-21T18:23:08.178Z,10.90
2022-11-21T18:25:39.441Z,10.90
2022-11-21T18:28:08.394Z,10.90
2022-11-21T18:30:36.477Z,10.90
2022-11-21T18:33:05.022Z,11.00
2022-11-21T18:35:34.762Z,10.90
2022-11-21T18:38:03.365Z,10.90
2022-11-21T18:40:31.334Z,10.90
2022-11-21T18:42:59.957Z,10.60
2022-11-21T18:45:27.937Z,10.50
2022-11-21T18:47:56.530Z,10.50
2022-11-21T18:50:24.900Z,10.60
2022-11-21T18:52:54.443Z,10.40
2022-11-21T18:55:23.355Z,10.40
2022-11-21T18:57:54.806Z,10.60
2022-11-21T19:00:25.320Z,10.50
2022-11-21T19:02:53.685Z,10.60
2022-11-21T19:05:28.438Z,10.70
2022-11-21T19:07:57.795Z,10.80
2022-11-21T19:10:42.548Z,10.80
2022-11-21T19:13:12.061Z,10.80
2022-11-21T19:15:42.413Z,10.80
2022-11-21T19:18:11.084Z,10.80
2022-11-21T19:20:42.011Z,10.80
2022-11-21T19:23:13.938Z,10.80
2022-11-21T19:25:42.397Z,10.80
2022-11-21T19:28:10.388Z,10.60
2022-11-21T19:30:38.433Z,10.70
2022-11-21T19:33:06.910Z,10.40
2022-11-21T19:35:35.280Z,10.40
2022-11-21T19:38:06.151Z,10.40
2022-11-21T19:40:51.766Z,10.60
2022-11-21T19:43:22.119Z,10.50
2022-11-21T19:45:57.906Z,10.50
2022-11-21T19:48:26.649Z,10.50
2022-11-21T19:51:07.007Z,10.60
2022-11-21T19:53:38.729Z,10.50
2022-11-21T19:56:22.210Z,10.60
2022-11-21T19:58:51.476Z,10.70
2022-11-21T20:01:21.889Z,10.60
2022-11-21T20:03:52.434Z,10.40
2022-11-21T20:06:22.532Z,10.40
2022-11-21T20:08:51.709Z,10.60
2022-11-21T20:11:25.740Z,10.60
2022-11-21T20:13:54.716Z,10.70
2022-11-21T20:16:25.397Z,10.60
2022-11-21T20:18:57.141Z,10.50
2022-11-21T20:21:28.456Z,10.30
2022-11-21T20:23:57.007Z,10.10
2022-11-21T20:26:27.769Z,9.90
2022-11-21T20:28:56.505Z,10.00
2022-11-21T20:31:28.440Z,10.00
2022-11-21T20:34:00.528Z,9.90
2022-11-21T20:36:31.520Z,9.70
2022-11-21T20:39:01.185Z,10.00
2022-11-21T20:41:39.239Z,10.30
2022-11-21T20:46:57.577Z,10.00
2022-11-21T20:49:25.554Z,10.00
2022-11-21T20:54:42.662Z,9.90
2022-11-21T20:57:15.210Z,9.70
2022-11-21T20:59:46.465Z,9.50
2022-11-21T21:02:17.403Z,9.40
2022-11-21T21:04:45.569Z,9.50
2022-11-21T21:07:13.802Z,9.20
2022-11-21T21:09:42.048Z,9.30
2022-11-21T21:12:11.430Z,9.40
2022-11-21T21:14:40.186Z,9.50
2022-11-21T21:17:08.314Z,9.50
2022-11-21T21:19:36.733Z,9.50
2022-11-21T21:22:06.185Z,9.60
2022-11-21T21:24:34.234Z,9.70
2022-11-21T21:27:02.184Z,9.80
2022-11-21T21:29:32.464Z,9.70
2022-11-21T21:32:00.838Z,9.70
2022-11-21T21:34:31.100Z,9.90
2022-11-21T21:36:59.725Z,9.80
2022-11-21T21:39:28.136Z,9.70
2022-11-21T21:41:56.690Z,9.90
2022-11-21T21:44:32.734Z,9.90
2022-11-21T21:47:03.944Z,9.90
2022-11-21T21:49:32.219Z,9.60
2022-11-21T21:52:00.226Z,9.50
2022-11-21T21:54:29.663Z,9.40
2022-11-21T21:56:59.151Z,9.40
2022-11-21T21:59:27.101Z,9.50
2022-11-21T22:01:56.475Z,9.60
2022-11-21T22:04:26.242Z,9.60
2022-11-21T22:06:54.482Z,9.60
2022-11-21T22:09:22.519Z,9.40
2022-11-21T22:11:50.559Z,9.40
2022-11-21T22:14:20.377Z,9.50
2022-11-21T22:19:33.682Z,9.30
2022-11-21T22:22:01.725Z,9.20
2022-11-21T22:24:29.842Z,9.20
2022-11-21T22:27:05.607Z,9.30
2022-11-21T22:29:33.806Z,9.40
2022-11-21T22:32:01.945Z,9.60
2022-11-21T22:34:31.903Z,9.60
2022-11-21T22:37:04.327Z,9.70
2022-11-21T22:39:32.937Z,9.60
2022-11-21T22:42:01.771Z,9.50
2022-11-21T22:44:30.367Z,9.60
2022-11-21T22:46:58.550Z,9.70
2022-11-21T22:49:27.543Z,9.70
2022-11-21T22:51:57.406Z,9.70
2022-11-21T22:54:30.642Z,9.60
2022-11-21T22:57:06.550Z,9.60
2022-11-21T22:59:35.622Z,9.70
2022-11-21T23:02:03.927Z,9.50
2022-11-21T23:04:32.392Z,9.50
2022-11-21T23:07:00.976Z,9.60
2022-11-21T23:09:33.030Z,9.40
2022-11-21T23:12:01.825Z,9.30
2022-11-21T23:14:30.138Z,9.40
2022-11-21T23:16:58.792Z,9.20
2022-11-21T23:19:27.361Z,9.40
2022-11-21T23:21:55.602Z,9.40
2022-11-21T23:24:23.607Z,9.70
2022-11-21T23:26:54.330Z,9.60
2022-11-21T23:29:24.451Z,9.60
2022-11-21T23:31:54.618Z,9.50
2022-11-21T23:34:22.678Z,9.40
2022-11-21T23:36:50.693Z,9.50
2022-11-21T23:39:24.875Z,9.60
2022-11-21T23:41:54.282Z,9.40
2022-11-21T23:44:23.684Z,9.30
2022-11-21T23:46:51.938Z,9.40
2022-11-21T23:49:20.472Z,9.50
2022-11-21T23:51:48.861Z,9.50
2022-11-21T23:54:19.398Z,9.40
2022-11-21T23:56:49.765Z,9.50
2022-11-21T23:59:20.220Z,9.50
